Vremea acum in Ocna Mures - Romania

Vrei sa afli care e starea vremii acum in Alba - Romania? Dorim sa iti furnizam starea vremii pentru Alba - Romania. Starea vremii Alba - Romania pentru astazi.

Vremea acum in Ocna Mures

Temperatura: 26 °C

Se simte ca: 26.7 °C
Innorat: 25 %
Precipitatii: 0 %
Presiune atmosferica: 1024 hPa
Umiditate: 51%
Vizibilitate: 10 km
Vantul bate din ESE cu 9 km/h

Evolutia vremii in Ocna Mures pe ore

Ora: 11:00
Parțial noros
Temperatura: 28°C
Sansa de precipitatii: 0%
Ora Descriere Temp Se simte Precipitatii Umiditate Vant
00:00Parțial noros23°25°0%63%SSE 2.2 KM/H
01:00Parțial noros21.3°21.3°0%64%SSE 2.2 KM/H
02:00Parțial noros19.6°19.6°0%65%SE 2.2 KM/H
03:00Parțial noros19°19°0%68%SE 2.2 KM/H
04:00Parțial noros18.4°18.4°0%72%SE 2.5 KM/H
05:00Parțial noros17.8°17.8°0%75%SE 2.5 KM/H
06:00Parțial noros19.3°19.3°0%70%SE 4.3 KM/H
07:00Parțial noros20.7°20.7°0%66%SE 5.8 KM/H
08:00Parțial noros22.2°24.6°0%61%SE 7.6 KM/H
09:00Parțial noros24.1°25.8°0%56%SE 7.6 KM/H
10:00Parțial noros26.1°27°0%50%SE 7.6 KM/H
11:00Parțial noros28°28.2°0%44%SE 7.6 KM/H
12:00Parțial noros29.3°29.4°0%41%SSW 5.8 KM/H
13:00Parțial noros30.6°30.5°0%37%W 4.3 KM/H
14:00Parțial noros31.9°31.7°0%34%NW 2.5 KM/H
15:00Parțial noros31.3°31.2°0%36%NNW 5 KM/H
16:00Parțial noros30.6°30.7°0%39%NNW 7.9 KM/H
17:00Parțial noros30°30.2°0%41%NNW 10.4 KM/H
18:00Parțial noros29.3°30.8°0%46%NNW 8.6 KM/H
19:00Parțial noros28.7°31.4°0%51%NNW 6.5 KM/H
20:00Parțial noros28°32°0%56%NNW 4.7 KM/H
21:00Ploi pe porţiuni în apropiere27°30.7°20%59%W 4.3 KM/H
22:00Parțial noros26°29.3°40%62%SSW 4 KM/H
23:00Ploi pe porţiuni în apropiere25°28°60%66%SE 3.6 KM/H